Time;durP1;ratioP1;P1;durP2;ratioP2;P2;SDS_P1;SDS_P2;PMS_P1;PMS_P2;Temp;Humidity;BMP_temperature;BMP_pressure;BME280_temperature;BME280_humidity;BME280_pressure;Samples;Min_cycle;Max_cycle;Signal;HPM_P1;HPM_P2
2022/03/09 00:01:29;;;;;;;;;;;;;;;-1.76;87.48;99790.19;5053483;28;926;-60
2022/03/09 00:03:56;;;;;;;;;;;;;;;-1.74;87.20;99786.03;5053392;28;953;-60
2022/03/09 00:06:22;;;;;;;;;;;;;;;-1.68;87.42;99778.56;5053365;28;922;-60
2022/03/09 00:08:49;;;;;;;;;;;;;;;-1.70;87.40;99781.56;5053319;28;926;-60
2022/03/09 00:11:15;;;;;;;;;;;;;;;-1.72;87.26;99774.88;5053200;28;1965;-60
2022/03/09 00:13:41;;;;;;;;;;;;;;;-1.71;86.91;99757.50;5053384;28;811;-60
2022/03/09 00:16:07;;;;;;;;;;;;;;;-1.67;86.72;99756.53;5053127;28;969;-60
2022/03/09 00:18:34;;;;;;;;;;;;;;;-1.66;86.62;99770.91;5052445;28;1086;-60
2022/03/09 00:21:01;;;;;;;;;;;;;;;-1.67;86.60;99759.22;5053177;28;815;-59
2022/03/09 00:23:27;;;;;;;;;;;;;;;-1.65;86.49;99758.91;5053095;28;905;-60
2022/03/09 00:25:54;;;;;;;;;;;;;;;-1.55;85.72;99753.16;5053035;28;1595;-60
2022/03/09 00:28:20;;;;;;;;;;;;;;;-1.59;85.82;99759.56;5052943;28;925;-59
2022/03/09 00:30:47;;;;;;;;;;;;;;;-1.62;86.21;99749.34;5053131;28;901;-60
2022/03/09 00:33:13;;;;;;;;;;;;;;;-1.64;86.06;99755.09;5052793;28;1965;-60
2022/03/09 00:35:40;;;;;;;;;;;;;;;-1.65;85.81;99746.16;5052819;28;854;-60
2022/03/09 00:38:06;;;;;;;;;;;;;;;-1.66;86.02;99760.06;5051641;28;812;-60
2022/03/09 00:40:33;;;;;;;;;;;;;;;-1.68;85.93;99763.06;5052737;28;879;-60
2022/03/09 00:42:59;;;;;;;;;;;;;;;-1.70;86.23;99753.69;5052290;28;1359;-60
2022/03/09 00:45:26;;;;;;;;;;;;;;;-1.74;86.67;99744.59;5052640;28;911;-59
2022/03/09 00:47:52;;;;;;;;;;;;;;;-1.74;86.59;99725.63;5052518;28;838;-59
2022/03/09 00:50:19;;;;;;;;;;;;;;;-1.73;86.55;99744.28;5052611;28;913;-59
2022/03/09 00:52:47;;;;;;;;;;;;;;;-1.85;87.08;99742.22;5052339;28;1906;-59
2022/03/09 00:55:13;;;;;;;;;;;;;;;-1.84;87.16;99729.47;5052457;28;1167;-60
2022/03/09 00:57:40;;;;;;;;;;;;;;;-1.92;87.25;99732.97;5052627;28;854;-59
2022/03/09 01:00:07;;;;;;;;;;;;;;;-1.99;87.51;99725.31;5052344;28;859;-60
2022/03/09 01:02:39;;;;;;;;;;;;;;;-1.96;87.22;99740.97;5052348;28;898;-59
2022/03/09 01:05:05;;;;;;;;;;;;;;;-2.00;87.86;99739.22;5052211;28;943;-59
2022/03/09 01:07:32;;;;;;;;;;;;;;;-2.05;87.56;99737.44;5052234;28;811;-59
2022/03/09 01:09:57;;;;;;;;;;;;;;;-2.13;88.01;99730.94;5052232;28;889;-59
2022/03/09 01:12:24;;;;;;;;;;;;;;;-2.20;88.50;99748.75;5052122;28;1928;-60
2022/03/09 01:14:50;;;;;;;;;;;;;;;-2.27;89.05;99733.78;5052012;28;905;-59
2022/03/09 01:17:17;;;;;;;;;;;;;;;-2.23;88.56;99725.81;5051959;28;955;-59
2022/03/09 01:19:43;;;;;;;;;;;;;;;-2.27;88.43;99727.56;5052097;28;898;-57
2022/03/09 01:22:10;;;;;;;;;;;;;;;-2.30;88.69;99730.94;5067369;28;875;-59
2022/03/09 01:24:36;;;;;;;;;;;;;;;-2.32;88.88;99733.16;5052021;28;823;-57
2022/03/09 01:27:03;;;;;;;;;;;;;;;-2.31;88.98;99724.69;5052215;28;815;-57
2022/03/09 01:29:29;;;;;;;;;;;;;;;-2.32;88.69;99722.34;5051709;28;795;-58
2022/03/09 01:31:56;;;;;;;;;;;;;;;-2.34;88.57;99721.84;5051905;28;1890;-58
2022/03/09 01:34:22;;;;;;;;;;;;;;;-2.32;88.55;99739.38;5052049;28;811;-59
2022/03/09 01:36:49;;;;;;;;;;;;;;;-2.30;88.22;99737.13;5051922;28;799;-57
2022/03/09 01:39:15;;;;;;;;;;;;;;;-2.28;87.97;99724.06;5052161;28;1343;-57
2022/03/09 01:41:41;;;;;;;;;;;;;;;-2.23;87.86;99722.31;5051747;28;839;-57
2022/03/09 01:44:12;;;;;;;;;;;;;;;-2.28;88.36;99718.66;5051323;28;1285;-58
2022/03/09 01:46:40;;;;;;;;;;;;;;;-2.23;87.60;99725.81;5051450;28;938;-59
2022/03/09 01:49:07;;;;;;;;;;;;;;;-2.29;87.74;99730.59;5051548;28;862;-59
2022/03/09 01:51:35;;;;;;;;;;;;;;;-2.34;88.62;99735.38;5051486;28;1906;-57
2022/03/09 01:54:02;;;;;;;;;;;;;;;-2.39;87.98;99714.69;5051468;28;926;-58
2022/03/09 01:56:29;;;;;;;;;;;;;;;-2.39;88.19;99732.81;5051506;28;819;-58
2022/03/09 01:58:55;;;;;;;;;;;;;;;-2.41;88.29;99743.97;5051450;28;843;-58
2022/03/09 02:01:22;;;;;;;;;;;;;;;-2.42;88.04;99736.97;5051553;28;815;-58
2022/03/09 02:03:49;;;;;;;;;;;;;;;-2.43;87.97;99737.28;5051675;28;881;-59
2022/03/09 02:06:16;;;;;;;;;;;;;;;-2.43;87.85;99737.28;5051387;28;842;-58
2022/03/09 02:11:26;;;;;;;;;;;;;;;-2.50;87.32;99729.63;5052257;28;1949;-60
2022/03/09 02:13:53;;;;;;;;;;;;;;;-2.44;87.39;99739.19;5051304;28;850;-59
2022/03/09 02:16:19;;;;;;;;;;;;;;;-2.38;86.41;99718.19;5051216;28;1140;-60
2022/03/09 02:18:46;;;;;;;;;;;;;;;-2.36;86.43;99732.19;5051243;28;874;-59
2022/03/09 02:21:15;;;;;;;;;;;;;;;-2.36;86.16;99729.50;5051229;28;831;-59
2022/03/09 02:23:43;;;;;;;;;;;;;;;-2.35;85.98;99731.06;5051554;28;855;-59
2022/03/09 02:26:09;;;;;;;;;;;;;;;-2.37;85.98;99723.28;5052075;28;771;-60
2022/03/09 02:28:39;;;;;;;;;;;;;;;-2.32;85.59;99716.91;5051467;28;764;-59
2022/03/09 02:31:06;;;;;;;;;;;;;;;-2.28;85.92;99731.41;5051307;28;878;-60
2022/03/09 02:33:32;;;;;;;;;;;;;;;-2.31;85.36;99740.94;5066641;28;846;-59
2022/03/09 02:35:59;;;;;;;;;;;;;;;-2.31;85.83;99716.56;5051315;28;889;-60
2022/03/09 02:38:26;;;;;;;;;;;;;;;-2.36;85.73;99716.75;5051179;28;815;-59
2022/03/09 02:40:53;;;;;;;;;;;;;;;-2.35;86.05;99731.06;5052388;28;960;-59
2022/03/09 02:43:20;;;;;;;;;;;;;;;-2.44;86.28;99728.34;5055047;28;1213;-59
2022/03/09 02:45:46;;;;;;;;;;;;;;;-2.49;86.34;99723.13;5054957;28;895;-60
2022/03/09 02:48:13;;;;;;;;;;;;;;;-2.47;87.00;99729.00;5053870;28;1194;-60
2022/03/09 02:50:39;;;;;;;;;;;;;;;-2.52;87.04;99734.56;5055315;28;858;-59
2022/03/09 02:53:04;;;;;;;;;;;;;;;-2.52;86.41;99719.13;5054828;28;1906;-59
2022/03/09 02:55:31;;;;;;;;;;;;;;;-2.52;86.54;99729.97;5054756;28;878;-59
2022/03/09 02:57:58;;;;;;;;;;;;;;;-2.47;86.48;99718.19;5054703;28;807;-60
2022/03/09 03:00:23;;;;;;;;;;;;;;;-2.44;86.50;99730.28;5054677;28;831;-60
2022/03/09 03:02:50;;;;;;;;;;;;;;;-2.37;85.80;99711.63;5054630;28;909;-58
2022/03/09 03:05:16;;;;;;;;;;;;;;;-2.34;85.85;99722.63;5054514;28;981;-60
2022/03/09 03:07:42;;;;;;;;;;;;;;;-2.33;86.13;99716.09;5054505;28;871;-60
2022/03/09 03:10:09;;;;;;;;;;;;;;;-2.32;85.76;99706.88;5054672;28;898;-60
2022/03/09 03:12:35;;;;;;;;;;;;;;;-2.27;85.22;99714.03;5054309;28;1944;-59
2022/03/09 03:15:04;;;;;;;;;;;;;;;-2.23;84.79;99716.91;5054635;28;803;-59
2022/03/09 03:17:30;;;;;;;;;;;;;;;-2.28;85.03;99707.03;5054509;28;1084;-59
2022/03/09 03:19:57;;;;;;;;;;;;;;;-2.32;85.15;99723.13;5054268;28;803;-59
2022/03/09 03:22:23;;;;;;;;;;;;;;;-2.29;84.83;99708.16;5054198;28;1000;-59
2022/03/09 03:24:50;;;;;;;;;;;;;;;-2.29;84.98;99714.34;5054255;28;823;-59
2022/03/09 03:27:17;;;;;;;;;;;;;;;-2.24;84.76;99709.91;5054399;28;827;-59
2022/03/09 03:29:43;;;;;;;;;;;;;;;-2.29;84.73;99717.06;5054086;28;918;-59
2022/03/09 03:32:10;;;;;;;;;;;;;;;-2.28;84.58;99718.66;5054089;28;1944;-59
2022/03/09 03:34:36;;;;;;;;;;;;;;;-2.28;84.58;99723.28;5053977;28;843;-59
2022/03/09 03:37:03;;;;;;;;;;;;;;;-2.28;85.00;99713.25;5054031;28;1008;-59
2022/03/09 03:39:30;;;;;;;;;;;;;;;-2.34;84.62;99719.94;5054143;28;823;-59
2022/03/09 03:41:56;;;;;;;;;;;;;;;-2.30;84.27;99712.78;5053891;28;796;-59
2022/03/09 03:44:22;;;;;;;;;;;;;;;-2.28;84.31;99707.84;5053628;28;1367;-59
2022/03/09 03:46:49;;;;;;;;;;;;;;;-2.24;83.70;99702.59;5053814;28;886;-59
2022/03/09 03:49:15;;;;;;;;;;;;;;;-2.26;84.23;99724.56;5053749;28;875;-59
2022/03/09 03:51:42;;;;;;;;;;;;;;;-2.36;84.22;99707.84;5053547;28;1980;-59
2022/03/09 03:54:10;;;;;;;;;;;;;;;-2.39;84.39;99720.09;5053714;28;886;-59
2022/03/09 03:56:36;;;;;;;;;;;;;;;-2.37;84.54;99720.59;5053593;28;862;-59
2022/03/09 03:59:03;;;;;;;;;;;;;;;-2.38;84.68;99716.25;5053558;28;850;-59
2022/03/09 04:01:30;;;;;;;;;;;;;;;-2.38;84.62;99712.78;5053719;28;843;-59
2022/03/09 04:03:56;;;;;;;;;;;;;;;-2.39;85.05;99727.41;5053508;28;889;-59
2022/03/09 04:06:23;;;;;;;;;;;;;;;-2.36;85.05;99703.22;5053685;28;917;-59
2022/03/09 04:08:49;;;;;;;;;;;;;;;-2.36;84.41;99722.16;5053459;28;814;-58
2022/03/09 04:11:16;;;;;;;;;;;;;;;-2.35;84.46;99701.28;5068645;28;1914;-59
2022/03/09 04:13:42;;;;;;;;;;;;;;;-2.33;84.41;99729.63;5053270;28;838;-59
2022/03/09 04:16:08;;;;;;;;;;;;;;;-2.41;84.55;99722.31;5053297;28;898;-59
2022/03/09 04:18:35;;;;;;;;;;;;;;;-2.39;84.52;99730.94;5053689;28;1049;-59
2022/03/09 04:21:01;;;;;;;;;;;;;;;-2.40;84.53;99731.25;5053147;28;948;-59
2022/03/09 04:23:27;;;;;;;;;;;;;;;-2.39;84.70;99711.97;5053059;28;870;-59
2022/03/09 04:25:54;;;;;;;;;;;;;;;-2.40;84.80;99731.25;5053194;28;855;-59
2022/03/09 04:28:20;;;;;;;;;;;;;;;-2.47;84.98;99727.09;5053108;28;819;-59
2022/03/09 04:30:46;;;;;;;;;;;;;;;-2.54;85.66;99726.78;5053165;28;815;-60
2022/03/09 04:33:13;;;;;;;;;;;;;;;-2.59;86.06;99726.13;5053190;28;1941;-59
2022/03/09 04:35:40;;;;;;;;;;;;;;;-2.61;85.91;99726.44;5053164;28;846;-60
2022/03/09 04:38:06;;;;;;;;;;;;;;;-2.60;85.95;99725.31;5053055;28;1114;-58
2022/03/09 04:40:32;;;;;;;;;;;;;;;-2.60;86.05;99730.75;5053470;28;795;-59
2022/03/09 04:42:59;;;;;;;;;;;;;;;-2.56;85.92;99733.59;5052637;28;1264;-59
2022/03/09 04:45:25;;;;;;;;;;;;;;;-2.55;85.49;99736.00;5052642;28;953;-59
2022/03/09 04:47:51;;;;;;;;;;;;;;;-2.50;84.80;99730.44;5052635;28;855;-57
2022/03/09 04:50:18;;;;;;;;;;;;;;;-2.44;84.36;99741.09;5052619;28;854;-58
2022/03/09 04:52:44;;;;;;;;;;;;;;;-2.42;84.09;99744.28;5052434;28;1906;-60
2022/03/09 04:55:11;;;;;;;;;;;;;;;-2.40;84.04;99748.28;5052472;28;847;-59
2022/03/09 04:57:38;;;;;;;;;;;;;;;-2.33;83.31;99751.28;5052801;28;964;-59
2022/03/09 05:00:05;;;;;;;;;;;;;;;-2.14;83.00;99747.50;5052416;28;803;-60
2022/03/09 05:02:32;;;;;;;;;;;;;;;-1.99;82.72;99744.28;5052416;28;811;-59
2022/03/09 05:04:58;;;;;;;;;;;;;;;-1.83;81.44;99752.75;5051802;28;822;-59
2022/03/09 05:07:25;;;;;;;;;;;;;;;-1.73;81.43;99755.13;5052182;28;838;-59
2022/03/09 05:09:51;;;;;;;;;;;;;;;-1.71;81.62;99750.19;5050933;28;1500;-59
2022/03/09 05:12:17;;;;;;;;;;;;;;;-1.79;81.99;99759.13;5052111;28;1943;-59
2022/03/09 05:14:44;;;;;;;;;;;;;;;-1.79;82.13;99761.00;5052157;28;811;-59
2022/03/09 05:17:11;;;;;;;;;;;;;;;-1.64;82.09;99755.09;5052241;28;1053;-59
2022/03/09 05:19:37;;;;;;;;;;;;;;;-1.51;81.48;99756.81;5052004;28;930;-59
2022/03/09 05:22:04;;;;;;;;;;;;;;;-1.35;80.85;99765.22;5051927;28;858;-59
2022/03/09 05:24:31;;;;;;;;;;;;;;;-1.21;80.33;99764.25;5051957;28;902;-59
2022/03/09 05:26:58;;;;;;;;;;;;;;;-1.09;79.78;99773.31;5051896;28;859;-59
2022/03/09 05:29:24;;;;;;;;;;;;;;;-0.90;79.43;99769.38;5051798;28;922;-59
2022/03/09 05:31:51;;;;;;;;;;;;;;;-0.72;78.37;99773.59;5051748;28;1886;-59
2022/03/09 05:34:18;;;;;;;;;;;;;;;-0.46;77.54;99778.88;5051797;28;866;-60
2022/03/09 05:36:44;;;;;;;;;;;;;;;-0.35;76.64;99768.44;5051698;28;948;-60
2022/03/09 05:39:10;;;;;;;;;;;;;;;-0.26;76.51;99780.03;5052004;28;886;-59
2022/03/09 05:41:37;;;;;;;;;;;;;;;-0.24;76.20;99810.38;5051653;28;799;-59
2022/03/09 05:44:04;;;;;;;;;;;;;;;-0.19;76.06;99787.66;5051261;28;1386;-59
2022/03/09 05:46:30;;;;;;;;;;;;;;;-0.02;75.26;99797.63;5051584;28;845;-59
2022/03/09 05:48:57;;;;;;;;;;;;;;;-0.07;75.54;99793.16;5051527;28;945;-60
2022/03/09 05:51:23;;;;;;;;;;;;;;;-0.08;75.71;99794.28;5051727;28;1999;-59
2022/03/09 05:53:49;;;;;;;;;;;;;;;0.02;75.28;99801.25;5051522;28;915;-59
2022/03/09 05:56:16;;;;;;;;;;;;;;;0.14;74.45;99801.31;5051499;28;862;-59
2022/03/09 05:58:42;;;;;;;;;;;;;;;0.19;74.34;99809.28;5051512;28;827;-59
2022/03/09 06:01:09;;;;;;;;;;;;;;;0.20;73.43;99810.84;5051416;28;847;-59
2022/03/09 06:03:36;;;;;;;;;;;;;;;0.18;74.39;99806.88;5051807;28;870;-59
2022/03/09 06:06:02;;;;;;;;;;;;;;;0.14;73.70;99811.41;5051436;28;890;-59
2022/03/09 06:08:29;;;;;;;;;;;;;;;0.26;74.43;99814.19;5051312;28;851;-59
2022/03/09 06:10:55;;;;;;;;;;;;;;;0.48;73.94;99823.09;5051548;28;973;-58
2022/03/09 06:13:22;;;;;;;;;;;;;;;0.73;71.58;99815.81;5051211;28;1953;-58
2022/03/09 06:15:49;;;;;;;;;;;;;;;0.95;70.80;99826.31;5052369;28;921;-59
2022/03/09 06:18:16;;;;;;;;;;;;;;;1.19;70.28;99819.31;5055804;28;1067;-59
2022/03/09 06:20:43;;;;;;;;;;;;;;;1.19;69.28;99827.47;5055400;28;827;-59
2022/03/09 06:23:09;;;;;;;;;;;;;;;1.27;69.80;99817.63;5055379;28;859;-59
2022/03/09 06:25:36;;;;;;;;;;;;;;;1.21;69.61;99819.75;5055395;28;847;-59
2022/03/09 06:28:03;;;;;;;;;;;;;;;1.27;69.82;99806.72;5055255;28;973;-59
2022/03/09 06:30:30;;;;;;;;;;;;;;;1.38;69.05;99824.97;5055275;28;890;-58
2022/03/09 06:32:56;;;;;;;;;;;;;;;1.68;70.05;99818.50;5055095;28;1961;-58
2022/03/09 06:35:23;;;;;;;;;;;;;;;1.88;67.79;99814.06;5055379;28;921;-58
2022/03/09 06:37:49;;;;;;;;;;;;;;;2.34;67.86;99822.81;5055303;28;795;-58
2022/03/09 06:40:16;;;;;;;;;;;;;;;2.62;66.01;99837.25;5055377;28;874;-59
2022/03/09 06:42:42;;;;;;;;;;;;;;;2.49;65.47;99827.50;5055675;28;859;-59
2022/03/09 06:45:09;;;;;;;;;;;;;;;2.12;66.28;99824.91;5054994;28;1228;-58
2022/03/09 06:47:38;;;;;;;;;;;;;;;1.88;67.62;99824.94;5055320;28;958;-58
2022/03/09 06:50:06;;;;;;;;;;;;;;;1.81;68.15;99823.63;5054950;28;897;-59
2022/03/09 06:52:33;;;;;;;;;;;;;;;1.65;68.42;99833.63;5054776;28;1973;-58
2022/03/09 06:55:03;;;;;;;;;;;;;;;1.61;67.96;99835.44;5055115;28;811;-56
2022/03/09 06:57:31;;;;;;;;;;;;;;;1.66;68.69;99824.31;5054715;28;862;-58
2022/03/09 06:59:58;;;;;;;;;;;;;;;1.91;67.14;99825.06;5053412;28;1502;-58
2022/03/09 07:02:23;;;;;;;;;;;;;;;2.07;66.68;99829.81;5054797;28;866;-57
2022/03/09 07:04:50;;;;;;;;;;;;;;;2.20;66.52;99832.16;5054667;28;906;-58
2022/03/09 07:07:16;;;;;;;;;;;;;;;2.80;64.66;99836.94;5054506;28;843;-59
2022/03/09 07:09:43;;;;;;;;;;;;;;;3.24;63.21;99845.09;5054445;28;951;-58
2022/03/09 07:12:10;;;;;;;;;;;;;;;2.80;64.41;99851.38;5054340;28;1945;-58
2022/03/09 07:14:36;;;;;;;;;;;;;;;2.08;66.71;99864.13;5054325;28;839;-59
2022/03/09 07:17:03;;;;;;;;;;;;;;;1.63;69.35;99852.25;5054713;28;964;-59
2022/03/09 07:19:30;;;;;;;;;;;;;;;2.13;69.59;99847.53;5053079;28;1331;-59
2022/03/09 07:21:56;;;;;;;;;;;;;;;3.48;65.08;99849.59;5054371;28;799;-59
2022/03/09 07:24:23;;;;;;;;;;;;;;;3.01;65.16;99848.44;5054435;28;824;-59
2022/03/09 07:26:49;;;;;;;;;;;;;;;1.73;66.58;99853.69;5053888;28;890;-59
2022/03/09 07:29:17;;;;;;;;;;;;;;;1.29;68.67;99857.00;5054329;28;887;-59
2022/03/09 07:31:42;;;;;;;;;;;;;;;1.23;70.29;99844.72;5054183;28;1885;-59
2022/03/09 07:34:09;;;;;;;;;;;;;;;1.31;69.77;99862.09;5054540;28;807;-59
2022/03/09 07:36:35;;;;;;;;;;;;;;;2.13;68.62;99858.41;5053966;28;873;-58
2022/03/09 07:39:02;;;;;;;;;;;;;;;2.63;67.85;99865.34;5052835;28;1550;-59
2022/03/09 07:41:29;;;;;;;;;;;;;;;2.20;65.94;99870.34;5053840;28;870;-59
2022/03/09 07:43:55;;;;;;;;;;;;;;;1.98;67.65;99866.16;5053761;28;1053;-59
2022/03/09 07:46:22;;;;;;;;;;;;;;;1.52;67.44;99854.63;5053816;28;870;-59
2022/03/09 07:48:49;;;;;;;;;;;;;;;1.23;68.47;99853.69;5053821;28;859;-59
2022/03/09 07:51:15;;;;;;;;;;;;;;;1.28;69.86;99863.56;5053675;28;874;-59
2022/03/09 07:53:43;;;;;;;;;;;;;;;1.49;69.99;99863.47;5053747;28;1906;-59
2022/03/09 07:56:10;;;;;;;;;;;;;;;1.55;68.91;99856.66;5053816;28;890;-59
2022/03/09 07:58:37;;;;;;;;;;;;;;;1.70;69.12;99868.03;5053587;28;853;-59
2022/03/09 08:01:03;;;;;;;;;;;;;;;1.44;69.18;99866.41;5053476;28;898;-59
2022/03/09 08:03:29;;;;;;;;;;;;;;;1.38;68.87;99868.56;5053611;28;815;-59
2022/03/09 08:05:56;;;;;;;;;;;;;;;1.25;69.39;99866.97;5053378;28;897;-59
2022/03/09 08:08:23;;;;;;;;;;;;;;;1.09;69.77;99858.66;5053485;28;815;-59
2022/03/09 08:10:50;;;;;;;;;;;;;;;1.08;70.37;99867.94;5053264;28;930;-59
2022/03/09 08:13:17;;;;;;;;;;;;;;;1.08;69.66;99857.06;5053228;28;1881;-59
2022/03/09 08:15:43;;;;;;;;;;;;;;;1.24;69.33;99854.50;5053627;28;799;-59
2022/03/09 08:18:10;;;;;;;;;;;;;;;1.24;69.24;99865.38;5053204;28;999;-59
2022/03/09 08:20:37;;;;;;;;;;;;;;;1.34;68.85;99867.66;5053201;28;862;-59
2022/03/09 08:23:03;;;;;;;;;;;;;;;1.47;68.30;99845.88;5053307;28;800;-59
2022/03/09 08:25:30;;;;;;;;;;;;;;;1.33;67.60;99848.94;5053091;28;903;-59
2022/03/09 08:27:58;;;;;;;;;;;;;;;1.57;67.58;99848.94;5053060;28;803;-59
2022/03/09 08:30:25;;;;;;;;;;;;;;;1.48;66.20;99851.00;5053002;28;890;-58
2022/03/09 08:32:51;;;;;;;;;;;;;;;1.80;67.30;99843.81;5052914;28;1882;-59
2022/03/09 08:35:18;;;;;;;;;;;;;;;1.58;66.01;99844.28;5053091;28;783;-59
2022/03/09 08:37:44;;;;;;;;;;;;;;;1.66;67.21;99839.88;5052718;28;870;-59
2022/03/09 08:40:12;;;;;;;;;;;;;;;1.99;65.99;99842.44;5050987;28;1213;-59
2022/03/09 08:42:39;;;;;;;;;;;;;;;1.89;65.17;99849.16;5068022;28;896;-59
2022/03/09 08:45:06;;;;;;;;;;;;;;;1.97;65.41;99848.22;5052456;28;1325;-59
2022/03/09 08:47:32;;;;;;;;;;;;;;;2.26;65.63;99843.63;5052722;28;812;-59
2022/03/09 08:50:00;;;;;;;;;;;;;;;2.30;64.15;99852.69;5052497;28;1097;-59
2022/03/09 08:52:27;;;;;;;;;;;;;;;1.98;65.06;99854.47;5052533;28;1914;-58
2022/03/09 08:54:53;;;;;;;;;;;;;;;1.55;65.06;99856.66;5052808;28;872;-59
2022/03/09 08:57:20;;;;;;;;;;;;;;;1.58;65.90;99866.88;5052489;28;879;-59
2022/03/09 08:59:47;;;;;;;;;;;;;;;1.67;65.76;99866.00;5051136;28;1337;-59
2022/03/09 09:02:13;;;;;;;;;;;;;;;1.48;65.91;99864.63;5052390;28;898;-59
2022/03/09 09:04:39;;;;;;;;;;;;;;;1.39;66.23;99870.16;5052312;28;1569;-59
2022/03/09 09:07:06;;;;;;;;;;;;;;;1.29;66.88;99869.81;5052395;28;938;-59
2022/03/09 09:09:35;;;;;;;;;;;;;;;1.21;67.57;99876.94;5052123;28;945;-59
2022/03/09 09:12:01;;;;;;;;;;;;;;;1.27;68.48;99888.41;5052150;28;1959;-59
2022/03/09 09:14:28;;;;;;;;;;;;;;;1.01;67.73;99879.38;5052131;28;925;-59
2022/03/09 09:16:55;;;;;;;;;;;;;;;0.89;68.38;99881.28;5052296;28;872;-59
2022/03/09 09:19:21;;;;;;;;;;;;;;;0.86;68.60;99880.03;5052067;28;869;-59
2022/03/09 09:21:47;;;;;;;;;;;;;;;0.88;69.42;99880.50;5050760;28;1500;-59
2022/03/09 09:24:14;;;;;;;;;;;;;;;1.26;68.91;99884.91;5051999;28;851;-59
2022/03/09 09:26:41;;;;;;;;;;;;;;;1.60;68.14;99883.69;5050656;28;1333;-59
2022/03/09 09:29:07;;;;;;;;;;;;;;;2.03;67.49;99895.94;5051901;28;887;-59
2022/03/09 09:31:34;;;;;;;;;;;;;;;2.26;64.01;99887.25;5051871;28;1870;-59
2022/03/09 09:34:00;;;;;;;;;;;;;;;2.41;63.86;99883.81;5050581;28;1194;-59
2022/03/09 09:36:26;;;;;;;;;;;;;;;2.70;64.33;99878.38;5051851;28;819;-59
2022/03/09 09:38:53;;;;;;;;;;;;;;;2.90;63.84;99890.22;5051769;28;819;-59
2022/03/09 09:41:24;;;;;;;;;;;;;;;2.56;62.17;99885.03;5067457;28;795;-59
2022/03/09 09:43:51;;;;;;;;;;;;;;;2.59;62.50;99889.00;5051664;28;1269;-59
2022/03/09 09:46:18;;;;;;;;;;;;;;;2.52;63.04;99884.13;5051674;28;890;-60
2022/03/09 09:48:44;;;;;;;;;;;;;;;2.71;63.16;99896.34;5051615;28;1014;-59
2022/03/09 09:51:12;;;;;;;;;;;;;;;2.56;60.85;99879.56;5051500;28;910;-59
2022/03/09 09:53:41;;;;;;;;;;;;;;;2.04;62.50;99891.28;5051533;28;1983;-59
2022/03/09 09:56:09;;;;;;;;;;;;;;;1.73;62.74;99892.66;5051571;28;799;-59
2022/03/09 09:58:37;;;;;;;;;;;;;;;1.66;62.36;99888.91;5051416;28;918;-60
2022/03/09 10:01:04;;;;;;;;;;;;;;;1.58;63.19;99888.69;5051481;28;807;-59
2022/03/09 10:03:30;;;;;;;;;;;;;;;1.56;62.88;99892.88;5066931;28;823;-59
2022/03/09 10:05:57;;;;;;;;;;;;;;;1.66;63.79;99883.47;5051381;28;942;-59
2022/03/09 10:08:23;;;;;;;;;;;;;;;1.61;63.65;99879.03;5051330;28;846;-59
2022/03/09 10:10:57;;;;;;;;;;;;;;;1.56;63.77;99896.41;5051408;28;847;-59
2022/03/09 10:13:31;;;;;;;;;;;;;;;1.59;62.77;99890.25;5052052;28;1941;-60
2022/03/09 10:16:10;;;;;;;;;;;;;;;1.65;63.91;99887.31;5051640;28;815;-59
2022/03/09 10:18:37;;;;;;;;;;;;;;;1.67;63.33;99902.19;5051363;28;827;-59
2022/03/09 10:21:11;;;;;;;;;;;;;;;1.87;64.01;99888.78;5051270;28;863;-59
2022/03/09 10:23:56;;;;;;;;;;;;;;;1.94;63.53;99898.00;5051221;28;977;-59
2022/03/09 10:26:24;;;;;;;;;;;;;;;1.77;62.94;99901.75;5050060;28;1497;-59
2022/03/09 10:29:05;;;;;;;;;;;;;;;1.56;62.85;99909.25;5051293;28;795;-59
2022/03/09 10:31:32;;;;;;;;;;;;;;;1.59;64.12;99901.16;5051120;28;1963;-59
2022/03/09 10:34:08;;;;;;;;;;;;;;;1.91;64.05;99898.66;5051103;28;921;-60
2022/03/09 10:36:35;;;;;;;;;;;;;;;2.11;63.31;99896.94;5049793;28;1270;-60
2022/03/09 10:39:12;;;;;;;;;;;;;;;2.24;63.68;99903.16;5051073;28;894;-59
2022/03/09 10:41:38;;;;;;;;;;;;;;;2.07;63.52;99904.25;5051025;28;882;-59
2022/03/09 10:44:04;;;;;;;;;;;;;;;2.08;65.01;99900.34;5050713;28;1278;-59
2022/03/09 10:46:51;;;;;;;;;;;;;;;2.24;64.58;99901.25;5051105;28;906;-59
2022/03/09 10:49:19;;;;;;;;;;;;;;;2.10;64.02;99902.75;5050948;28;2280;-59
2022/03/09 10:51:45;;;;;;;;;;;;;;;1.89;63.72;99890.03;5050855;28;1914;-59
2022/03/09 10:54:22;;;;;;;;;;;;;;;1.70;63.49;99887.09;5051068;28;835;-59
2022/03/09 10:56:49;;;;;;;;;;;;;;;1.61;65.06;99887.22;5051439;28;768;-59
2022/03/09 10:59:18;;;;;;;;;;;;;;;1.53;65.16;99886.16;5051446;28;828;-60
2022/03/09 11:02:00;;;;;;;;;;;;;;;1.65;65.45;99888.13;5051915;28;862;-59
2022/03/09 11:04:27;;;;;;;;;;;;;;;1.67;63.98;99885.06;5054662;28;871;-59
2022/03/09 11:06:56;;;;;;;;;;;;;;;1.54;64.92;99890.50;5054517;28;839;-59
2022/03/09 11:09:22;;;;;;;;;;;;;;;1.36;64.88;99894.56;5054540;28;828;-59
2022/03/09 11:11:50;;;;;;;;;;;;;;;1.21;65.17;99885.91;5054354;28;1957;-58
2022/03/09 11:14:18;;;;;;;;;;;;;;;1.15;66.43;99883.72;5054430;28;1153;-58
2022/03/09 11:16:46;;;;;;;;;;;;;;;1.65;66.55;99882.66;5054480;28;933;-59
2022/03/09 11:19:15;;;;;;;;;;;;;;;2.22;64.34;99881.72;5055164;28;799;-60
2022/03/09 11:21:42;;;;;;;;;;;;;;;2.68;62.55;99877.94;5054395;28;819;-59
2022/03/09 11:24:10;;;;;;;;;;;;;;;2.95;62.57;99888.06;5054261;28;898;-57
2022/03/09 11:26:54;;;;;;;;;;;;;;;2.99;61.52;99883.47;5054322;28;791;-58
2022/03/09 11:29:31;;;;;;;;;;;;;;;3.09;60.24;99887.63;5054269;28;895;-58
2022/03/09 11:31:58;;;;;;;;;;;;;;;2.80;61.08;99884.13;5054395;28;1914;-58
2022/03/09 11:34:43;;;;;;;;;;;;;;;2.55;61.31;99877.97;5054152;28;814;-57
2022/03/09 11:37:18;;;;;;;;;;;;;;;2.63;61.64;99887.16;5054001;28;849;-57
2022/03/09 11:39:45;;;;;;;;;;;;;;;2.36;60.42;99884.06;5052778;28;1410;-59
2022/03/09 11:42:20;;;;;;;;;;;;;;;2.47;60.78;99887.09;5053976;28;851;-59
2022/03/09 11:44:51;;;;;;;;;;;;;;;2.56;58.97;99886.94;5053912;28;1312;-59
2022/03/09 11:47:18;;;;;;;;;;;;;;;2.31;60.06;99883.50;5053923;28;815;-59
2022/03/09 11:49:52;;;;;;;;;;;;;;;2.25;59.30;99878.28;5054199;28;859;-59
2022/03/09 11:52:19;;;;;;;;;;;;;;;2.27;60.38;99883.41;5053992;28;1911;-59
2022/03/09 11:54:52;;;;;;;;;;;;;;;2.30;59.24;99877.25;5053771;28;887;-59
2022/03/09 11:57:18;;;;;;;;;;;;;;;2.52;58.94;99865.03;5053656;28;909;-59
2022/03/09 12:00:05;;;;;;;;;;;;;;;2.96;60.20;99864.25;5053646;28;878;-59
2022/03/09 12:02:58;;;;;;;;;;;;;;;2.84;60.42;99871.38;5053449;28;1143;-58
2022/03/09 12:05:25;;;;;;;;;;;;;;;2.63;60.69;99855.22;5053451;28;1488;-59
2022/03/09 12:07:55;;;;;;;;;;;;;;;2.72;59.60;99867.91;5053994;28;798;-59
2022/03/09 12:10:42;;;;;;;;;;;;;;;2.73;61.27;99870.31;5053737;28;807;-59
2022/03/09 12:13:10;;;;;;;;;;;;;;;2.89;60.18;99873.06;5053329;28;1890;-59
2022/03/09 12:15:55;;;;;;;;;;;;;;;2.86;61.51;99863.63;5053513;28;866;-57
2022/03/09 12:18:38;;;;;;;;;;;;;;;3.06;59.66;99855.56;5053942;28;956;-59
2022/03/09 12:21:05;;;;;;;;;;;;;;;3.64;59.46;99858.56;5053194;28;874;-59
2022/03/09 12:23:33;;;;;;;;;;;;;;;4.08;57.69;99863.88;5053151;28;852;-58
2022/03/09 12:26:01;;;;;;;;;;;;;;;4.02;57.15;99865.28;5053480;28;893;-59
2022/03/09 12:28:34;;;;;;;;;;;;;;;3.99;56.65;99873.41;5053024;28;977;-59
2022/03/09 12:31:00;;;;;;;;;;;;;;;3.69;53.77;99865.69;5053046;28;988;-59
2022/03/09 12:33:29;;;;;;;;;;;;;;;3.34;55.70;99860.97;5052898;28;1886;-59
2022/03/09 12:36:04;;;;;;;;;;;;;;;3.78;56.21;99869.06;5051640;28;1380;-58
2022/03/09 12:38:35;;;;;;;;;;;;;;;3.59;54.39;99860.78;5053186;28;800;-59
2022/03/09 12:41:01;;;;;;;;;;;;;;;3.36;55.04;99855.94;5051510;28;1307;-59
2022/03/09 12:43:48;;;;;;;;;;;;;;;3.10;56.03;99866.59;5052701;28;1224;-58
2022/03/09 12:46:15;;;;;;;;;;;;;;;2.79;56.98;99877.06;5052702;28;1764;-58
2022/03/09 12:48:42;;;;;;;;;;;;;;;2.74;57.44;99874.59;5052800;28;815;-59
2022/03/09 12:51:09;;;;;;;;;;;;;;;3.02;57.85;99865.59;5051345;28;1361;-59
2022/03/09 12:53:36;;;;;;;;;;;;;;;3.26;57.00;99872.84;5052565;28;1967;-58
2022/03/09 12:56:14;;;;;;;;;;;;;;;3.27;57.10;99869.78;5052617;28;842;-59
2022/03/09 12:58:40;;;;;;;;;;;;;;;2.72;58.89;99868.69;5052417;28;914;-59
2022/03/09 13:01:12;;;;;;;;;;;;;;;2.62;60.50;99878.19;5052555;28;890;-59
2022/03/09 13:03:40;;;;;;;;;;;;;;;2.27;61.39;99879.88;5052361;28;883;-59
2022/03/09 13:06:07;;;;;;;;;;;;;;;2.00;63.13;99872.06;5067629;28;902;-59
2022/03/09 13:08:36;;;;;;;;;;;;;;;2.05;63.58;99887.44;5052414;28;839;-59
2022/03/09 13:11:04;;;;;;;;;;;;;;;2.22;63.67;99881.72;5052328;28;834;-59
2022/03/09 13:13:33;;;;;;;;;;;;;;;1.86;63.39;99887.19;5050906;28;1949;-59
2022/03/09 13:16:00;;;;;;;;;;;;;;;1.47;64.35;99879.34;5052252;28;819;-59